Time,TemperatureF,DewpointF,PressureIn,WindDirection,WindDirectionDegrees,WindSpeedMPH,WindSpeedGustMPH,Humidity,HourlyPrecipIn,Conditions,Clouds,dailyrainin,SoftwareType,DateUTC
2013-06-14 06:58:00,78.0,71.0,29.80,NNE,30,1.0,3.0,79,0.00,,,0.00,weatherlink.com 1.10,2013-06-14 10:58:00,
2013-06-14 07:14:00,78.5,71.0,29.81,NW,319,1.0,4.0,78,0.00,,,0.00,weatherlink.com 1.10,2013-06-14 11:14:00,
2013-06-14 07:29:00,79.0,72.0,29.82,NNW,340,2.0,7.0,78,0.00,,,0.00,weatherlink.com 1.10,2013-06-14 11:29:00,
2013-06-14 07:44:00,79.5,72.0,29.81,North,359,3.0,7.0,77,0.00,,,0.00,weatherlink.com 1.10,2013-06-14 11:44:00,
2013-06-14 07:59:00,79.6,71.0,29.82,NW,325,4.0,9.0,75,0.00,,,0.00,weatherlink.com 1.10,2013-06-14 11:59:00,
2013-06-14 08:14:00,79.9,70.0,29.83,NNW,344,4.0,7.0,72,0.00,,,0.00,weatherlink.com 1.10,2013-06-14 12:14:00,
2013-06-14 08:29:00,80.5,70.0,29.83,ENE,71,1.0,9.0,71,0.00,,,0.00,weatherlink.com 1.10,2013-06-14 12:29:00,
2013-06-14 08:44:00,80.6,70.0,29.84,NNW,337,4.0,11.0,69,0.00,,,0.00,weatherlink.com 1.10,2013-06-14 12:44:00,
2013-06-14 08:59:00,81.1,70.0,29.83,NNE,30,2.0,8.0,70,0.00,,,0.00,weatherlink.com 1.10,2013-06-14 12:59:00,
2013-06-14 09:14:00,81.4,69.0,29.84,NE,37,8.0,10.0,65,0.00,,,0.00,weatherlink.com 1.10,2013-06-14 13:14:00,
2013-06-14 09:29:00,81.4,69.0,29.84,NW,319,3.0,12.0,66,0.00,,,0.00,weatherlink.com 1.10,2013-06-14 13:29:00,
2013-06-14 09:44:00,82.1,69.0,29.85,NE,47,3.0,9.0,64,0.00,,,0.00,weatherlink.com 1.10,2013-06-14 13:44:00,
2013-06-14 09:59:00,82.4,68.0,29.85,North,360,5.0,10.0,61,0.00,,,0.00,weatherlink.com 1.10,2013-06-14 13:59:00,
2013-06-14 10:14:00,82.7,67.0,29.86,North,349,4.0,12.0,59,0.00,,,0.00,weatherlink.com 1.10,2013-06-14 14:14:00,
2013-06-14 10:29:00,82.6,65.0,29.86,ESE,123,2.0,11.0,56,0.00,,,0.00,weatherlink.com 1.10,2013-06-14 14:29:00,
2013-06-14 10:44:00,83.5,63.0,29.86,WNW,302,2.0,8.0,50,0.00,,,0.00,weatherlink.com 1.10,2013-06-14 14:44:00,
2013-06-14 13:00:00,86.3,63.0,29.86,ESE,122,3.0,6.0,45,0.00,,,0.00,weatherlink.com 1.10,2013-06-14 17:00:00,
2013-06-14 13:15:00,87.1,64.0,29.86,North,351,3.0,7.0,47,0.00,,,0.00,weatherlink.com 1.10,2013-06-14 17:15:00,
2013-06-14 13:30:00,87.3,63.0,29.86,NNW,337,2.0,6.0,45,0.00,,,0.00,weatherlink.com 1.10,2013-06-14 17:30:00,
2013-06-14 13:45:00,87.5,64.0,29.86,ENE,67,2.0,10.0,45,0.00,,,0.00,weatherlink.com 1.10,2013-06-14 17:45:00,
2013-06-14 14:00:00,86.4,63.0,29.86,ENE,76,2.0,6.0,45,0.00,,,0.00,weatherlink.com 1.10,2013-06-14 18:00:00,
2013-06-14 14:15:00,87.2,61.0,29.86,WNW,284,1.0,5.0,42,0.00,,,0.00,weatherlink.com 1.10,2013-06-14 18:15:00,
2013-06-14 14:30:00,88.0,63.0,29.86,ESE,102,2.0,6.0,44,0.00,,,0.00,weatherlink.com 1.10,2013-06-14 18:30:00,
2013-06-14 14:45:00,88.3,60.0,29.86,WNW,298,3.0,4.0,39,0.00,,,0.00,weatherlink.com 1.10,2013-06-14 18:45:00,
2013-06-14 15:00:00,88.2,62.0,29.86,North,353,4.0,6.0,42,0.00,,,0.00,weatherlink.com 1.10,2013-06-14 19:00:00,
2013-06-14 15:15:00,88.2,62.0,29.86,WNW,294,1.0,5.0,41,0.00,,,0.00,weatherlink.com 1.10,2013-06-14 19:15:00,
2013-06-14 15:45:00,88.5,61.0,29.87,NW,320,2.0,6.0,40,0.00,,,0.00,weatherlink.com 1.10,2013-06-14 19:45:00,
2013-06-14 16:00:00,88.0,62.0,29.87,SSW,197,0.0,7.0,42,0.00,,,0.00,weatherlink.com 1.10,2013-06-14 20:00:00,
2013-06-14 16:15:00,88.1,62.0,29.87,NW,307,1.0,4.0,41,0.00,,,0.00,weatherlink.com 1.10,2013-06-14 20:15:00,
2013-06-14 16:30:00,87.5,65.0,29.87,SE,134,0.0,2.0,48,0.00,,,0.00,weatherlink.com 1.10,2013-06-14 20:30:00,
2013-06-14 17:00:00,89.9,67.0,29.87,SSE,163,0.0,6.0,47,0.00,,,0.00,weatherlink.com 1.10,2013-06-14 21:00:00,
2013-06-14 17:15:00,88.9,66.0,29.87,SSE,159,5.0,6.0,46,0.00,,,0.00,weatherlink.com 1.10,2013-06-14 21:15:00,
2013-06-14 17:30:00,87.1,67.0,29.87,West,262,0.0,3.0,51,0.00,,,0.00,weatherlink.com 1.10,2013-06-14 21:30:00,
2013-06-14 18:00:00,86.4,67.0,29.86,SSE,152,5.0,7.0,52,0.00,,,0.00,weatherlink.com 1.10,2013-06-14 22:00:00,
2013-06-14 18:15:00,84.5,68.0,29.86,SW,219,1.0,6.0,57,0.00,,,0.00,weatherlink.com 1.10,2013-06-14 22:15:00,
2013-06-14 18:30:00,84.7,67.0,29.87,SSE,160,2.0,6.0,55,0.00,,,0.00,weatherlink.com 1.10,2013-06-14 22:30:00,
2013-06-14 18:45:00,84.6,66.0,29.87,South,169,2.0,5.0,53,0.00,,,0.00,weatherlink.com 1.10,2013-06-14 22:45:00,
2013-06-14 19:00:00,84.3,66.0,29.88,SSE,157,2.0,6.0,55,0.00,,,0.00,weatherlink.com 1.10,2013-06-14 23:00:00,
2013-06-14 19:15:00,85.4,66.0,29.88,ESE,120,0.0,2.0,53,0.00,,,0.00,weatherlink.com 1.10,2013-06-14 23:15:00,
2013-06-14 19:30:00,84.8,66.0,29.89,ESE,117,3.0,6.0,53,0.00,,,0.00,weatherlink.com 1.10,2013-06-14 23:30:00,
2013-06-14 20:01:00,81.8,67.0,29.90,SSE,158,4.0,8.0,62,0.00,,,0.00,weatherlink.com 1.10,2013-06-15 00:01:00,
2013-06-14 20:16:00,80.4,67.0,29.91,SSE,158,6.0,8.0,64,0.00,,,0.00,weatherlink.com 1.10,2013-06-15 00:16:00,
2013-06-14 20:31:00,79.6,67.0,29.92,South,169,2.0,6.0,66,0.00,,,0.00,weatherlink.com 1.10,2013-06-15 00:31:00,
2013-06-14 20:46:00,78.8,68.0,29.92,SSE,167,1.0,4.0,69,0.00,,,0.00,weatherlink.com 1.10,2013-06-15 00:46:00,
2013-06-14 23:16:00,74.4,68.0,29.97,East,90,1.0,1.0,79,0.00,,,0.00,weatherlink.com 1.10,2013-06-15 03:16:00,
2013-06-14 23:31:00,74.7,68.0,29.98,ESE,103,0.0,1.0,80,0.00,,,0.00,weatherlink.com 1.10,2013-06-15 03:31:00,
2013-06-14 23:46:00,74.0,68.0,29.98,ESE,103,0.0,0.0,81,0.00,,,0.00,weatherlink.com 1.10,2013-06-15 03:46:00,